sensor_id;sensor_type;location;lat;lon;timestamp;temperature;humidity
19242;DHT22;9755;47.790;9.620;2023-03-01T00:02:21;-0.90;99.90
19242;DHT22;9755;47.790;9.620;2023-03-01T00:04:48;-0.90;99.90
19242;DHT22;9755;47.790;9.620;2023-03-01T00:07:15;-0.80;99.90
19242;DHT22;9755;47.790;9.620;2023-03-01T00:09:42;-0.80;1.00
19242;DHT22;9755;47.790;9.620;2023-03-01T00:12:11;-0.80;1.00
19242;DHT22;9755;47.790;9.620;2023-03-01T00:14:38;-0.80;1.00
19242;DHT22;9755;47.790;9.620;2023-03-01T00:17:05;-0.80;1.00
19242;DHT22;9755;47.790;9.620;2023-03-01T00:19:34;-0.70;1.00
19242;DHT22;9755;47.790;9.620;2023-03-01T00:22:01;-0.70;1.00
19242;DHT22;9755;47.790;9.620;2023-03-01T00:24:28;-0.70;1.00
19242;DHT22;9755;47.790;9.620;2023-03-01T00:26:55;-0.70;1.00
19242;DHT22;9755;47.790;9.620;2023-03-01T00:29:24;-0.70;1.00
19242;DHT22;9755;47.790;9.620;2023-03-01T00:31:51;-0.70;1.00
19242;DHT22;9755;47.790;9.620;2023-03-01T00:34:18;-0.60;1.00
19242;DHT22;9755;47.790;9.620;2023-03-01T00:36:47;-0.60;1.00
19242;DHT22;9755;47.790;9.620;2023-03-01T00:39:14;-0.60;1.00
19242;DHT22;9755;47.790;9.620;2023-03-01T00:41:42;-0.50;1.00
19242;DHT22;9755;47.790;9.620;2023-03-01T00:44:10;-0.50;1.00
19242;DHT22;9755;47.790;9.620;2023-03-01T00:46:38;-0.50;1.00
19242;DHT22;9755;47.790;9.620;2023-03-01T00:49:05;-0.50;1.00
19242;DHT22;9755;47.790;9.620;2023-03-01T00:51:32;-0.50;1.00
19242;DHT22;9755;47.790;9.620;2023-03-01T00:54:02;-0.40;1.00
19242;DHT22;9755;47.790;9.620;2023-03-01T00:56:29;-0.40;1.00
19242;DHT22;9755;47.790;9.620;2023-03-01T00:58:56;-0.40;1.00
19242;DHT22;9755;47.790;9.620;2023-03-01T01:01:26;-0.40;1.00
19242;DHT22;9755;47.790;9.620;2023-03-01T01:03:58;-0.40;99.90
19242;DHT22;9755;47.790;9.620;2023-03-01T01:06:27;-0.30;99.90
19242;DHT22;9755;47.790;9.620;2023-03-01T01:08:55;-0.30;99.90
19242;DHT22;9755;47.790;9.620;2023-03-01T01:11:25;-0.30;99.90
19242;DHT22;9755;47.790;9.620;2023-03-01T01:13:53;-0.20;99.90
19242;DHT22;9755;47.790;9.620;2023-03-01T01:16:21;-0.20;99.90
19242;DHT22;9755;47.790;9.620;2023-03-01T01:18:49;-0.20;99.90
19242;DHT22;9755;47.790;9.620;2023-03-01T01:21:18;-0.10;99.90
19242;DHT22;9755;47.790;9.620;2023-03-01T01:23:46;-0.10;99.90
19242;DHT22;9755;47.790;9.620;2023-03-01T01:26:16;-0.10;99.90
19242;DHT22;9755;47.790;9.620;2023-03-01T01:28:44;-0.10;99.90
19242;DHT22;9755;47.790;9.620;2023-03-01T01:31:12;0.00;99.90
19242;DHT22;9755;47.790;9.620;2023-03-01T01:33:39;0.00;1.00
19242;DHT22;9755;47.790;9.620;2023-03-01T01:36:07;0.00;1.00
19242;DHT22;9755;47.790;9.620;2023-03-01T01:38:34;0.10;1.00
19242;DHT22;9755;47.790;9.620;2023-03-01T01:41:01;0.10;1.00
19242;DHT22;9755;47.790;9.620;2023-03-01T01:43:31;0.10;1.00
19242;DHT22;9755;47.790;9.620;2023-03-01T01:46:02;0.20;1.00
19242;DHT22;9755;47.790;9.620;2023-03-01T01:48:37;0.20;99.90
19242;DHT22;9755;47.790;9.620;2023-03-01T01:51:09;0.30;99.90
19242;DHT22;9755;47.790;9.620;2023-03-01T01:53:37;0.40;1.00
19242;DHT22;9755;47.790;9.620;2023-03-01T01:56:08;0.40;1.00
19242;DHT22;9755;47.790;9.620;2023-03-01T01:58:36;0.50;1.00
19242;DHT22;9755;47.790;9.620;2023-03-01T02:01:05;0.50;99.90
19242;DHT22;9755;47.790;9.620;2023-03-01T02:03:35;0.60;16.70
19242;DHT22;9755;47.790;9.620;2023-03-01T02:06:12;0.60;1.00
19242;DHT22;9755;47.790;9.620;2023-03-01T02:08:41;0.70;1.00
19242;DHT22;9755;47.790;9.620;2023-03-01T02:11:10;0.70;1.00
19242;DHT22;9755;47.790;9.620;2023-03-01T02:13:40;0.80;1.00
19242;DHT22;9755;47.790;9.620;2023-03-01T02:16:11;0.80;1.00
19242;DHT22;9755;47.790;9.620;2023-03-01T02:18:40;0.80;1.00
19242;DHT22;9755;47.790;9.620;2023-03-01T02:21:24;0.70;1.00
19242;DHT22;9755;47.790;9.620;2023-03-01T02:23:53;0.80;1.00
19242;DHT22;9755;47.790;9.620;2023-03-01T02:26:28;0.80;1.00
19242;DHT22;9755;47.790;9.620;2023-03-01T02:28:58;0.80;1.00
19242;DHT22;9755;47.790;9.620;2023-03-01T02:31:26;0.80;1.00
19242;DHT22;9755;47.790;9.620;2023-03-01T02:34:11;0.90;99.90
19242;DHT22;9755;47.790;9.620;2023-03-01T02:36:40;0.90;99.90
19242;DHT22;9755;47.790;9.620;2023-03-01T02:39:12;0.90;99.90
19242;DHT22;9755;47.790;9.620;2023-03-01T02:41:46;0.90;99.90
19242;DHT22;9755;47.790;9.620;2023-03-01T02:44:16;0.90;99.90
19242;DHT22;9755;47.790;9.620;2023-03-01T02:46:44;0.90;99.90
19242;DHT22;9755;47.790;9.620;2023-03-01T02:49:24;0.90;99.90
19242;DHT22;9755;47.790;9.620;2023-03-01T02:52:20;0.80;1.00
19242;DHT22;9755;47.790;9.620;2023-03-01T02:54:51;0.80;1.00
19242;DHT22;9755;47.790;9.620;2023-03-01T02:57:19;0.90;1.00
19242;DHT22;9755;47.790;9.620;2023-03-01T02:59:50;0.80;1.00
19242;DHT22;9755;47.790;9.620;2023-03-01T03:02:20;0.80;1.00
19242;DHT22;9755;47.790;9.620;2023-03-01T03:05:02;0.70;1.00
19242;DHT22;9755;47.790;9.620;2023-03-01T03:07:32;0.70;99.90
19242;DHT22;9755;47.790;9.620;2023-03-01T03:09:59;0.60;99.90
19242;DHT22;9755;47.790;9.620;2023-03-01T03:12:27;0.60;99.90
19242;DHT22;9755;47.790;9.620;2023-03-01T03:14:55;0.50;1.00
19242;DHT22;9755;47.790;9.620;2023-03-01T03:17:22;0.60;1.00
19242;DHT22;9755;47.790;9.620;2023-03-01T03:19:49;0.60;1.00
19242;DHT22;9755;47.790;9.620;2023-03-01T03:22:17;0.50;1.00
19242;DHT22;9755;47.790;9.620;2023-03-01T03:24:44;0.50;1.00
19242;DHT22;9755;47.790;9.620;2023-03-01T03:27:11;0.50;1.00
19242;DHT22;9755;47.790;9.620;2023-03-01T03:29:38;0.60;1.00
19242;DHT22;9755;47.790;9.620;2023-03-01T03:32:06;0.60;99.90
19242;DHT22;9755;47.790;9.620;2023-03-01T03:34:33;0.70;1.00
19242;DHT22;9755;47.790;9.620;2023-03-01T03:37:00;0.70;1.00
19242;DHT22;9755;47.790;9.620;2023-03-01T03:39:28;0.70;99.90
19242;DHT22;9755;47.790;9.620;2023-03-01T03:42:00;0.80;1.00
19242;DHT22;9755;47.790;9.620;2023-03-01T03:44:28;0.80;1.00
19242;DHT22;9755;47.790;9.620;2023-03-01T03:46:55;0.80;44.70
19242;DHT22;9755;47.790;9.620;2023-03-01T03:49:36;0.70;99.90
19242;DHT22;9755;47.790;9.620;2023-03-01T03:52:03;0.80;1.00
19242;DHT22;9755;47.790;9.620;2023-03-01T03:54:30;0.80;1.00
19242;DHT22;9755;47.790;9.620;2023-03-01T03:56:57;0.90;1.00
19242;DHT22;9755;47.790;9.620;2023-03-01T03:59:24;0.90;1.00
19242;DHT22;9755;47.790;9.620;2023-03-01T04:01:51;0.90;1.00
19242;DHT22;9755;47.790;9.620;2023-03-01T04:04:18;0.90;1.00
19242;DHT22;9755;47.790;9.620;2023-03-01T04:06:47;0.90;1.00
19242;DHT22;9755;47.790;9.620;2023-03-01T04:09:14;0.90;99.90
19242;DHT22;9755;47.790;9.620;2023-03-01T04:11:41;0.90;99.90
19242;DHT22;9755;47.790;9.620;2023-03-01T04:14:08;1.00;99.90
19242;DHT22;9755;47.790;9.620;2023-03-01T04:16:36;0.90;1.00
19242;DHT22;9755;47.790;9.620;2023-03-01T04:19:03;0.90;99.90
19242;DHT22;9755;47.790;9.620;2023-03-01T04:21:31;0.90;99.90
19242;DHT22;9755;47.790;9.620;2023-03-01T04:24:00;0.90;99.90
19242;DHT22;9755;47.790;9.620;2023-03-01T04:26:29;1.00;99.90
19242;DHT22;9755;47.790;9.620;2023-03-01T04:28:56;0.90;99.90
19242;DHT22;9755;47.790;9.620;2023-03-01T04:31:23;0.90;99.90
19242;DHT22;9755;47.790;9.620;2023-03-01T04:33:51;0.90;99.90
19242;DHT22;9755;47.790;9.620;2023-03-01T04:36:20;0.90;99.90
19242;DHT22;9755;47.790;9.620;2023-03-01T04:38:48;1.00;99.90
19242;DHT22;9755;47.790;9.620;2023-03-01T04:41:18;0.90;99.90
19242;DHT22;9755;47.790;9.620;2023-03-01T04:43:46;0.90;99.90
19242;DHT22;9755;47.790;9.620;2023-03-01T04:46:15;0.90;99.90
19242;DHT22;9755;47.790;9.620;2023-03-01T04:48:44;0.90;99.90
19242;DHT22;9755;47.790;9.620;2023-03-01T04:51:13;0.90;99.90
19242;DHT22;9755;47.790;9.620;2023-03-01T04:53:40;0.90;99.90
19242;DHT22;9755;47.790;9.620;2023-03-01T04:56:08;0.90;99.90
19242;DHT22;9755;47.790;9.620;2023-03-01T04:58:36;0.90;99.90
19242;DHT22;9755;47.790;9.620;2023-03-01T05:01:09;0.90;1.00
19242;DHT22;9755;47.790;9.620;2023-03-01T05:03:41;0.90;99.90
19242;DHT22;9755;47.790;9.620;2023-03-01T05:06:09;0.90;99.90
19242;DHT22;9755;47.790;9.620;2023-03-01T05:08:37;1.00;99.90
19242;DHT22;9755;47.790;9.620;2023-03-01T05:11:05;1.00;99.90
19242;DHT22;9755;47.790;9.620;2023-03-01T05:13:36;1.00;1.00
19242;DHT22;9755;47.790;9.620;2023-03-01T05:16:05;0.90;99.90
19242;DHT22;9755;47.790;9.620;2023-03-01T05:18:34;0.90;99.90
19242;DHT22;9755;47.790;9.620;2023-03-01T05:21:04;0.90;99.90
19242;DHT22;9755;47.790;9.620;2023-03-01T05:23:32;0.90;99.90
19242;DHT22;9755;47.790;9.620;2023-03-01T05:26:01;0.90;99.90
19242;DHT22;9755;47.790;9.620;2023-03-01T05:28:30;1.00;99.90
19242;DHT22;9755;47.790;9.620;2023-03-01T05:30:58;1.00;99.90
19242;DHT22;9755;47.790;9.620;2023-03-01T05:33:26;1.00;99.90
19242;DHT22;9755;47.790;9.620;2023-03-01T05:35:53;1.00;1.00
19242;DHT22;9755;47.790;9.620;2023-03-01T05:38:21;1.00;1.00
19242;DHT22;9755;47.790;9.620;2023-03-01T05:40:48;1.00;99.90
19242;DHT22;9755;47.790;9.620;2023-03-01T05:43:16;0.90;99.90
19242;DHT22;9755;47.790;9.620;2023-03-01T05:45:43;0.90;99.90
19242;DHT22;9755;47.790;9.620;2023-03-01T05:48:12;0.90;1.00
19242;DHT22;9755;47.790;9.620;2023-03-01T05:50:41;1.00;1.00
19242;DHT22;9755;47.790;9.620;2023-03-01T05:53:10;1.00;1.00
19242;DHT22;9755;47.790;9.620;2023-03-01T05:55:39;1.00;1.00
19242;DHT22;9755;47.790;9.620;2023-03-01T05:58:07;0.90;1.00
19242;DHT22;9755;47.790;9.620;2023-03-01T06:00:36;0.90;1.00
19242;DHT22;9755;47.790;9.620;2023-03-01T06:03:03;0.90;1.00
19242;DHT22;9755;47.790;9.620;2023-03-01T06:05:32;0.90;1.00
19242;DHT22;9755;47.790;9.620;2023-03-01T06:07:59;0.90;1.00
19242;DHT22;9755;47.790;9.620;2023-03-01T06:10:27;0.90;1.00
19242;DHT22;9755;47.790;9.620;2023-03-01T06:12:54;0.90;1.00
19242;DHT22;9755;47.790;9.620;2023-03-01T06:15:22;0.90;1.00
19242;DHT22;9755;47.790;9.620;2023-03-01T06:17:49;0.90;1.00
19242;DHT22;9755;47.790;9.620;2023-03-01T06:20:18;0.90;1.00
19242;DHT22;9755;47.790;9.620;2023-03-01T06:22:47;0.90;1.00
19242;DHT22;9755;47.790;9.620;2023-03-01T06:25:17;1.00;1.00
19242;DHT22;9755;47.790;9.620;2023-03-01T06:27:44;1.00;99.90
19242;DHT22;9755;47.790;9.620;2023-03-01T06:30:14;0.90;99.90
19242;DHT22;9755;47.790;9.620;2023-03-01T06:32:41;0.90;99.90
19242;DHT22;9755;47.790;9.620;2023-03-01T06:35:09;0.90;99.90
19242;DHT22;9755;47.790;9.620;2023-03-01T06:37:37;0.90;1.00
19242;DHT22;9755;47.790;9.620;2023-03-01T06:40:07;1.00;1.00
19242;DHT22;9755;47.790;9.620;2023-03-01T06:42:37;1.00;1.00
19242;DHT22;9755;47.790;9.620;2023-03-01T06:45:06;1.00;1.00
19242;DHT22;9755;47.790;9.620;2023-03-01T06:47:33;1.00;1.00
19242;DHT22;9755;47.790;9.620;2023-03-01T06:50:00;1.00;1.00
19242;DHT22;9755;47.790;9.620;2023-03-01T06:52:31;1.00;99.90
19242;DHT22;9755;47.790;9.620;2023-03-01T06:54:58;1.00;99.90
19242;DHT22;9755;47.790;9.620;2023-03-01T06:57:27;1.10;99.90
19242;DHT22;9755;47.790;9.620;2023-03-01T06:59:54;1.10;99.90
19242;DHT22;9755;47.790;9.620;2023-03-01T07:02:21;1.10;99.90
19242;DHT22;9755;47.790;9.620;2023-03-01T07:04:49;1.10;99.90
19242;DHT22;9755;47.790;9.620;2023-03-01T07:07:16;1.10;99.90
19242;DHT22;9755;47.790;9.620;2023-03-01T07:09:44;1.10;99.90
19242;DHT22;9755;47.790;9.620;2023-03-01T07:12:11;1.10;99.90
19242;DHT22;9755;47.790;9.620;2023-03-01T07:14:40;1.10;99.90
19242;DHT22;9755;47.790;9.620;2023-03-01T07:17:07;1.00;99.90
19242;DHT22;9755;47.790;9.620;2023-03-01T07:19:34;1.10;99.90
19242;DHT22;9755;47.790;9.620;2023-03-01T07:22:02;1.10;99.90
19242;DHT22;9755;47.790;9.620;2023-03-01T07:24:30;1.20;99.90
19242;DHT22;9755;47.790;9.620;2023-03-01T07:26:57;1.20;99.90
19242;DHT22;9755;47.790;9.620;2023-03-01T07:29:24;1.20;19.10
19242;DHT22;9755;47.790;9.620;2023-03-01T07:31:52;1.20;1.00
19242;DHT22;9755;47.790;9.620;2023-03-01T07:34:19;1.20;1.00
19242;DHT22;9755;47.790;9.620;2023-03-01T07:36:46;1.20;1.00
19242;DHT22;9755;47.790;9.620;2023-03-01T07:39:13;1.20;1.00
19242;DHT22;9755;47.790;9.620;2023-03-01T07:41:40;1.20;1.00
19242;DHT22;9755;47.790;9.620;2023-03-01T07:44:08;1.30;1.00
19242;DHT22;9755;47.790;9.620;2023-03-01T07:46:35;1.30;1.00
19242;DHT22;9755;47.790;9.620;2023-03-01T07:49:03;1.30;1.00
19242;DHT22;9755;47.790;9.620;2023-03-01T07:51:30;1.30;1.00
19242;DHT22;9755;47.790;9.620;2023-03-01T07:53:58;1.20;1.00
19242;DHT22;9755;47.790;9.620;2023-03-01T07:56:25;1.30;1.00
19242;DHT22;9755;47.790;9.620;2023-03-01T07:58:52;1.30;1.00
19242;DHT22;9755;47.790;9.620;2023-03-01T08:01:20;1.30;1.00
19242;DHT22;9755;47.790;9.620;2023-03-01T08:03:47;1.30;1.00
19242;DHT22;9755;47.790;9.620;2023-03-01T08:06:17;1.30;1.00
19242;DHT22;9755;47.790;9.620;2023-03-01T08:08:45;1.40;1.00
19242;DHT22;9755;47.790;9.620;2023-03-01T08:11:13;1.40;1.00
19242;DHT22;9755;47.790;9.620;2023-03-01T08:13:41;1.40;1.00
19242;DHT22;9755;47.790;9.620;2023-03-01T08:16:10;1.40;1.00
19242;DHT22;9755;47.790;9.620;2023-03-01T08:18:37;1.50;1.00
19242;DHT22;9755;47.790;9.620;2023-03-01T08:21:06;1.50;1.00
19242;DHT22;9755;47.790;9.620;2023-03-01T08:23:35;1.40;1.00
19242;DHT22;9755;47.790;9.620;2023-03-01T08:26:06;1.50;1.00
19242;DHT22;9755;47.790;9.620;2023-03-01T08:28:34;1.40;1.00
19242;DHT22;9755;47.790;9.620;2023-03-01T08:31:01;1.30;1.00
19242;DHT22;9755;47.790;9.620;2023-03-01T08:33:29;1.30;1.00
19242;DHT22;9755;47.790;9.620;2023-03-01T08:36:03;1.30;1.00
19242;DHT22;9755;47.790;9.620;2023-03-01T08:38:30;1.30;1.00
19242;DHT22;9755;47.790;9.620;2023-03-01T08:41:00;1.40;1.00
19242;DHT22;9755;47.790;9.620;2023-03-01T08:43:28;1.40;1.00
19242;DHT22;9755;47.790;9.620;2023-03-01T08:45:55;1.50;1.00
19242;DHT22;9755;47.790;9.620;2023-03-01T08:48:22;1.50;1.00
19242;DHT22;9755;47.790;9.620;2023-03-01T08:50:49;1.50;1.00
19242;DHT22;9755;47.790;9.620;2023-03-01T08:53:16;1.40;1.00
19242;DHT22;9755;47.790;9.620;2023-03-01T08:55:43;1.40;99.90
19242;DHT22;9755;47.790;9.620;2023-03-01T08:58:11;1.40;99.90
19242;DHT22;9755;47.790;9.620;2023-03-01T09:00:39;1.50;99.90
19242;DHT22;9755;47.790;9.620;2023-03-01T09:03:06;1.60;99.90
19242;DHT22;9755;47.790;9.620;2023-03-01T09:05:33;1.70;99.90
19242;DHT22;9755;47.790;9.620;2023-03-01T09:08:02;1.70;99.90
19242;DHT22;9755;47.790;9.620;2023-03-01T09:10:29;1.70;99.90
19242;DHT22;9755;47.790;9.620;2023-03-01T09:12:56;1.50;99.90
19242;DHT22;9755;47.790;9.620;2023-03-01T09:15:25;1.50;99.90
19242;DHT22;9755;47.790;9.620;2023-03-01T09:17:52;1.70;99.90
19242;DHT22;9755;47.790;9.620;2023-03-01T09:20:19;1.70;99.90
19242;DHT22;9755;47.790;9.620;2023-03-01T09:22:46;1.80;99.90
19242;DHT22;9755;47.790;9.620;2023-03-01T09:25:13;1.80;99.90
19242;DHT22;9755;47.790;9.620;2023-03-01T09:27:40;1.80;99.90
19242;DHT22;9755;47.790;9.620;2023-03-01T09:30:09;1.80;99.90
19242;DHT22;9755;47.790;9.620;2023-03-01T09:32:37;1.80;99.90
19242;DHT22;9755;47.790;9.620;2023-03-01T09:35:08;1.70;99.90
19242;DHT22;9755;47.790;9.620;2023-03-01T09:37:36;1.70;99.90
19242;DHT22;9755;47.790;9.620;2023-03-01T09:40:05;1.80;99.90
19242;DHT22;9755;47.790;9.620;2023-03-01T09:42:34;1.80;99.90
19242;DHT22;9755;47.790;9.620;2023-03-01T09:45:04;1.80;99.90
19242;DHT22;9755;47.790;9.620;2023-03-01T09:47:33;1.80;99.90
19242;DHT22;9755;47.790;9.620;2023-03-01T09:50:06;1.80;99.90
19242;DHT22;9755;47.790;9.620;2023-03-01T09:52:40;1.90;99.90
19242;DHT22;9755;47.790;9.620;2023-03-01T09:55:13;1.90;99.90
19242;DHT22;9755;47.790;9.620;2023-03-01T09:57:46;1.90;94.50
19242;DHT22;9755;47.790;9.620;2023-03-01T10:00:24;2.00;61.90
19242;DHT22;9755;47.790;9.620;2023-03-01T10:02:58;2.00;45.70
19242;DHT22;9755;47.790;9.620;2023-03-01T10:05:36;2.00;29.10
19242;DHT22;9755;47.790;9.620;2023-03-01T10:08:24;2.10;1.00
19242;DHT22;9755;47.790;9.620;2023-03-01T10:10:55;2.10;1.00
19242;DHT22;9755;47.790;9.620;2023-03-01T10:13:31;2.00;1.00
19242;DHT22;9755;47.790;9.620;2023-03-01T10:16:03;1.90;1.00
19242;DHT22;9755;47.790;9.620;2023-03-01T10:18:33;1.90;16.10
19242;DHT22;9755;47.790;9.620;2023-03-01T10:21:14;2.00;20.20
19242;DHT22;9755;47.790;9.620;2023-03-01T10:23:42;2.10;1.00
19242;DHT22;9755;47.790;9.620;2023-03-01T10:26:21;2.00;1.00
19242;DHT22;9755;47.790;9.620;2023-03-01T10:28:58;2.10;5.90
19242;DHT22;9755;47.790;9.620;2023-03-01T10:31:36;2.10;1.00
19242;DHT22;9755;47.790;9.620;2023-03-01T10:34:09;2.20;1.00
19242;DHT22;9755;47.790;9.620;2023-03-01T10:36:39;2.20;1.00
19242;DHT22;9755;47.790;9.620;2023-03-01T10:39:13;2.20;1.00
19242;DHT22;9755;47.790;9.620;2023-03-01T10:41:53;2.10;1.00
19242;DHT22;9755;47.790;9.620;2023-03-01T10:44:42;2.10;1.00
19242;DHT22;9755;47.790;9.620;2023-03-01T10:47:19;2.10;1.00
19242;DHT22;9755;47.790;9.620;2023-03-01T10:49:59;2.10;1.00
19242;DHT22;9755;47.790;9.620;2023-03-01T10:52:30;2.10;1.00
19242;DHT22;9755;47.790;9.620;2023-03-01T10:54:59;2.10;1.00
19242;DHT22;9755;47.790;9.620;2023-03-01T10:57:36;2.10;1.00
19242;DHT22;9755;47.790;9.620;2023-03-01T11:00:21;2.00;1.00
19242;DHT22;9755;47.790;9.620;2023-03-01T11:02:51;2.10;1.00
19242;DHT22;9755;47.790;9.620;2023-03-01T11:05:21;2.00;1.00
19242;DHT22;9755;47.790;9.620;2023-03-01T11:07:52;1.90;1.00
19242;DHT22;9755;47.790;9.620;2023-03-01T11:10:23;2.00;1.00
19242;DHT22;9755;47.790;9.620;2023-03-01T11:12:51;2.20;1.00
19242;DHT22;9755;47.790;9.620;2023-03-01T11:15:25;2.20;1.00
19242;DHT22;9755;47.790;9.620;2023-03-01T11:17:53;2.20;1.00
19242;DHT22;9755;47.790;9.620;2023-03-01T11:20:26;2.20;1.00
19242;DHT22;9755;47.790;9.620;2023-03-01T11:22:57;2.20;1.00
19242;DHT22;9755;47.790;9.620;2023-03-01T11:25:28;2.20;1.00
19242;DHT22;9755;47.790;9.620;2023-03-01T11:28:00;2.10;1.00
19242;DHT22;9755;47.790;9.620;2023-03-01T11:30:31;2.20;1.00
19242;DHT22;9755;47.790;9.620;2023-03-01T11:33:07;2.20;1.00
19242;DHT22;9755;47.790;9.620;2023-03-01T11:35:42;2.30;1.00
19242;DHT22;9755;47.790;9.620;2023-03-01T11:38:19;2.30;1.00
19242;DHT22;9755;47.790;9.620;2023-03-01T11:40:52;2.30;1.00
19242;DHT22;9755;47.790;9.620;2023-03-01T11:43:23;2.20;1.00
19242;DHT22;9755;47.790;9.620;2023-03-01T11:46:29;2.20;1.00
19242;DHT22;9755;47.790;9.620;2023-03-01T11:49:11;2.50;1.00
19242;DHT22;9755;47.790;9.620;2023-03-01T11:51:48;2.50;1.00
19242;DHT22;9755;47.790;9.620;2023-03-01T11:54:30;2.50;1.00
19242;DHT22;9755;47.790;9.620;2023-03-01T11:57:04;2.60;1.00
19242;DHT22;9755;47.790;9.620;2023-03-01T11:59:55;2.60;1.00
19242;DHT22;9755;47.790;9.620;2023-03-01T12:02:49;2.70;1.00
19242;DHT22;9755;47.790;9.620;2023-03-01T12:08:34;2.80;1.00
19242;DHT22;9755;47.790;9.620;2023-03-01T12:11:13;2.70;1.00
19242;DHT22;9755;47.790;9.620;2023-03-01T12:14:04;2.60;1.00
19242;DHT22;9755;47.790;9.620;2023-03-01T12:16:59;2.50;1.00
19242;DHT22;9755;47.790;9.620;2023-03-01T12:19:45;2.60;1.00
19242;DHT22;9755;47.790;9.620;2023-03-01T12:22:28;2.70;1.00
19242;DHT22;9755;47.790;9.620;2023-03-01T12:25:20;2.90;1.00
19242;DHT22;9755;47.790;9.620;2023-03-01T12:28:10;2.80;1.00
19242;DHT22;9755;47.790;9.620;2023-03-01T12:31:02;2.80;1.00
19242;DHT22;9755;47.790;9.620;2023-03-01T12:33:41;2.70;1.00
19242;DHT22;9755;47.790;9.620;2023-03-01T12:39:26;2.80;1.00
19242;DHT22;9755;47.790;9.620;2023-03-01T12:42:03;2.80;1.00
19242;DHT22;9755;47.790;9.620;2023-03-01T12:44:48;3.00;1.00
19242;DHT22;9755;47.790;9.620;2023-03-01T12:47:44;2.90;1.00
19242;DHT22;9755;47.790;9.620;2023-03-01T12:50:19;3.00;1.00
19242;DHT22;9755;47.790;9.620;2023-03-01T12:52:50;3.00;1.00
19242;DHT22;9755;47.790;9.620;2023-03-01T12:55:26;3.00;1.00
19242;DHT22;9755;47.790;9.620;2023-03-01T12:58:07;3.20;1.00
19242;DHT22;9755;47.790;9.620;2023-03-01T13:00:41;3.40;1.00
19242;DHT22;9755;47.790;9.620;2023-03-01T13:03:21;3.30;1.00
19242;DHT22;9755;47.790;9.620;2023-03-01T13:06:02;3.20;1.00
19242;DHT22;9755;47.790;9.620;2023-03-01T13:08:38;3.10;1.00
19242;DHT22;9755;47.790;9.620;2023-03-01T13:11:14;3.20;1.00
19242;DHT22;9755;47.790;9.620;2023-03-01T13:13:42;3.20;1.00
19242;DHT22;9755;47.790;9.620;2023-03-01T13:16:39;3.40;1.00
19242;DHT22;9755;47.790;9.620;2023-03-01T13:19:12;3.40;1.00
19242;DHT22;9755;47.790;9.620;2023-03-01T13:21:40;3.30;1.00
19242;DHT22;9755;47.790;9.620;2023-03-01T13:24:24;3.30;1.00
19242;DHT22;9755;47.790;9.620;2023-03-01T13:27:18;3.40;1.00
19242;DHT22;9755;47.790;9.620;2023-03-01T13:29:48;3.40;1.00
19242;DHT22;9755;47.790;9.620;2023-03-01T13:32:22;3.40;1.00
19242;DHT22;9755;47.790;9.620;2023-03-01T13:34:54;3.40;1.00
19242;DHT22;9755;47.790;9.620;2023-03-01T13:37:36;3.40;1.00
19242;DHT22;9755;47.790;9.620;2023-03-01T13:42:52;3.40;1.00
19242;DHT22;9755;47.790;9.620;2023-03-01T13:45:23;3.10;1.00
19242;DHT22;9755;47.790;9.620;2023-03-01T13:48:00;3.10;1.00
19242;DHT22;9755;47.790;9.620;2023-03-01T13:50:32;3.30;1.00
19242;DHT22;9755;47.790;9.620;2023-03-01T13:53:02;3.30;1.00
19242;DHT22;9755;47.790;9.620;2023-03-01T13:55:37;3.50;1.00
19242;DHT22;9755;47.790;9.620;2023-03-01T13:58:16;3.40;1.00
19242;DHT22;9755;47.790;9.620;2023-03-01T14:00:45;3.30;1.00
19242;DHT22;9755;47.790;9.620;2023-03-01T14:03:16;3.40;1.00
19242;DHT22;9755;47.790;9.620;2023-03-01T14:05:58;3.20;1.00
19242;DHT22;9755;47.790;9.620;2023-03-01T14:08:27;3.30;1.00
19242;DHT22;9755;47.790;9.620;2023-03-01T14:11:06;3.30;1.00
19242;DHT22;9755;47.790;9.620;2023-03-01T14:13:49;3.40;1.00
19242;DHT22;9755;47.790;9.620;2023-03-01T14:16:27;3.50;1.00
19242;DHT22;9755;47.790;9.620;2023-03-01T14:19:08;3.30;1.00
19242;DHT22;9755;47.790;9.620;2023-03-01T14:21:39;3.40;1.00
19242;DHT22;9755;47.790;9.620;2023-03-01T14:24:16;3.60;1.00
19242;DHT22;9755;47.790;9.620;2023-03-01T14:26:44;3.60;1.00
19242;DHT22;9755;47.790;9.620;2023-03-01T14:29:24;3.70;1.00
19242;DHT22;9755;47.790;9.620;2023-03-01T14:31:51;3.50;1.00
19242;DHT22;9755;47.790;9.620;2023-03-01T14:34:21;3.30;1.00
19242;DHT22;9755;47.790;9.620;2023-03-01T14:36:49;3.20;1.00
19242;DHT22;9755;47.790;9.620;2023-03-01T14:39:17;3.10;1.00
19242;DHT22;9755;47.790;9.620;2023-03-01T14:41:45;3.10;1.00
19242;DHT22;9755;47.790;9.620;2023-03-01T14:44:16;3.10;1.00
19242;DHT22;9755;47.790;9.620;2023-03-01T14:46:45;3.20;1.00
19242;DHT22;9755;47.790;9.620;2023-03-01T14:49:14;3.20;1.00
19242;DHT22;9755;47.790;9.620;2023-03-01T14:51:51;3.20;1.00
19242;DHT22;9755;47.790;9.620;2023-03-01T14:54:22;3.10;1.00
19242;DHT22;9755;47.790;9.620;2023-03-01T14:56:51;3.10;1.00
19242;DHT22;9755;47.790;9.620;2023-03-01T14:59:21;3.00;1.00
19242;DHT22;9755;47.790;9.620;2023-03-01T15:01:48;3.00;1.00
19242;DHT22;9755;47.790;9.620;2023-03-01T15:04:15;2.90;1.00
19242;DHT22;9755;47.790;9.620;2023-03-01T15:06:44;2.80;1.00
19242;DHT22;9755;47.790;9.620;2023-03-01T15:09:14;2.90;1.00
19242;DHT22;9755;47.790;9.620;2023-03-01T15:11:43;2.80;1.00
19242;DHT22;9755;47.790;9.620;2023-03-01T15:14:38;2.80;1.00
19242;DHT22;9755;47.790;9.620;2023-03-01T15:17:20;2.80;1.00
19242;DHT22;9755;47.790;9.620;2023-03-01T15:19:47;2.70;1.00
19242;DHT22;9755;47.790;9.620;2023-03-01T15:22:16;2.80;1.00
19242;DHT22;9755;47.790;9.620;2023-03-01T15:24:47;2.90;1.00
19242;DHT22;9755;47.790;9.620;2023-03-01T15:27:17;3.20;1.00
19242;DHT22;9755;47.790;9.620;2023-03-01T15:29:49;3.20;1.00
19242;DHT22;9755;47.790;9.620;2023-03-01T15:32:28;3.00;1.00
19242;DHT22;9755;47.790;9.620;2023-03-01T15:34:56;3.00;1.00
19242;DHT22;9755;47.790;9.620;2023-03-01T15:37:50;3.00;1.00
19242;DHT22;9755;47.790;9.620;2023-03-01T15:40:21;3.00;1.00
19242;DHT22;9755;47.790;9.620;2023-03-01T15:42:50;3.20;1.00
19242;DHT22;9755;47.790;9.620;2023-03-01T15:45:23;3.20;1.00
19242;DHT22;9755;47.790;9.620;2023-03-01T15:47:54;3.20;1.00
19242;DHT22;9755;47.790;9.620;2023-03-01T15:50:25;3.10;1.00
19242;DHT22;9755;47.790;9.620;2023-03-01T15:52:54;3.10;1.00
19242;DHT22;9755;47.790;9.620;2023-03-01T15:55:23;3.20;1.00
19242;DHT22;9755;47.790;9.620;2023-03-01T15:57:58;3.10;1.00
19242;DHT22;9755;47.790;9.620;2023-03-01T16:00:28;3.00;1.00
19242;DHT22;9755;47.790;9.620;2023-03-01T16:02:55;2.90;1.00
19242;DHT22;9755;47.790;9.620;2023-03-01T16:05:24;2.90;1.00
19242;DHT22;9755;47.790;9.620;2023-03-01T16:07:54;2.80;1.00
19242;DHT22;9755;47.790;9.620;2023-03-01T16:10:21;2.70;1.00
19242;DHT22;9755;47.790;9.620;2023-03-01T16:12:48;2.70;1.00
19242;DHT22;9755;47.790;9.620;2023-03-01T16:15:18;2.60;1.00
19242;DHT22;9755;47.790;9.620;2023-03-01T16:17:46;2.60;1.00
19242;DHT22;9755;47.790;9.620;2023-03-01T16:20:13;2.50;1.00
19242;DHT22;9755;47.790;9.620;2023-03-01T16:22:41;2.40;1.00
19242;DHT22;9755;47.790;9.620;2023-03-01T16:25:12;2.30;1.00
19242;DHT22;9755;47.790;9.620;2023-03-01T16:27:41;2.20;1.00
19242;DHT22;9755;47.790;9.620;2023-03-01T16:30:10;2.20;1.00
19242;DHT22;9755;47.790;9.620;2023-03-01T16:32:38;2.10;1.00
19242;DHT22;9755;47.790;9.620;2023-03-01T16:35:06;2.10;1.00
19242;DHT22;9755;47.790;9.620;2023-03-01T16:37:33;2.10;1.00
19242;DHT22;9755;47.790;9.620;2023-03-01T16:40:01;2.00;1.00
19242;DHT22;9755;47.790;9.620;2023-03-01T16:42:33;2.00;6.40
19242;DHT22;9755;47.790;9.620;2023-03-01T16:45:00;2.00;22.80
19242;DHT22;9755;47.790;9.620;2023-03-01T16:47:27;2.00;27.30